createdAt,value
2022-12-03T00:01:20.405Z,101315.03
2022-12-03T00:04:22.918Z,101318.22
2022-12-03T00:07:25.223Z,101296.91
2022-12-03T00:10:27.830Z,101317.28
2022-12-03T00:13:30.134Z,101303.69
2022-12-03T00:16:32.710Z,101330.62
2022-12-03T00:19:34.977Z,101315.44
2022-12-03T00:22:39.606Z,101316.22
2022-12-03T00:25:41.829Z,101320.28
2022-12-03T00:28:45.549Z,101332.63
2022-12-03T00:31:48.807Z,101317.03
2022-12-03T00:34:51.691Z,101331.41
2022-12-03T00:37:54.925Z,101346.53
2022-12-03T00:40:57.644Z,101347.38
2022-12-03T00:43:59.864Z,101340.38
2022-12-03T00:47:02.606Z,101340.38
2022-12-03T00:50:06.170Z,101324.78
2022-12-03T00:53:08.721Z,101348.53
2022-12-03T00:56:11.108Z,101346.44
2022-12-03T00:59:13.734Z,101344.47
2022-12-03T01:02:16.254Z,101341.63
2022-12-03T01:05:20.023Z,101344.78
2022-12-03T01:08:22.344Z,101327.97
2022-12-03T01:11:41.231Z,101321.94
2022-12-03T01:14:44.589Z,101343.88
2022-12-03T01:17:47.150Z,101317.03
2022-12-03T01:20:49.440Z,101335.16
2022-12-03T01:23:52.040Z,101317.91
2022-12-03T01:26:56.041Z,101338.00
2022-12-03T01:29:58.618Z,101347.31
2022-12-03T01:33:00.851Z,101344.34
2022-12-03T01:36:03.560Z,101349.44
2022-12-03T01:39:05.856Z,101346.25
2022-12-03T01:42:11.900Z,101327.28
2022-12-03T01:45:22.695Z,101345.31
2022-12-03T01:48:25.325Z,101348.72
2022-12-03T01:51:27.606Z,101352.25
2022-12-03T01:54:42.272Z,101334.19
2022-12-03T01:57:51.559Z,101338.50
2022-12-03T02:00:54.688Z,101326.44
2022-12-03T02:03:57.874Z,101361.38
2022-12-03T02:07:20.583Z,101357.12
2022-12-03T02:10:30.160Z,101339.41
2022-12-03T02:13:33.136Z,101346.53
2022-12-03T02:16:37.603Z,101324.25
2022-12-03T02:19:40.315Z,101345.69
2022-12-03T02:22:57.951Z,101340.81
2022-12-03T02:26:00.715Z,101340.81
2022-12-03T02:29:03.938Z,101325.25
2022-12-03T02:32:06.595Z,101323.44
2022-12-03T02:35:21.318Z,101344.91
2022-12-03T02:38:27.092Z,101345.47
2022-12-03T02:41:48.267Z,101344.69
2022-12-03T02:44:51.811Z,101319.19
2022-12-03T02:48:02.648Z,101342.72
2022-12-03T02:51:09.086Z,101336.00
2022-12-03T02:54:11.470Z,101333.91
2022-12-03T02:57:16.336Z,101342.72
2022-12-03T03:00:20.182Z,101310.56
2022-12-03T03:03:24.658Z,101344.69
2022-12-03T03:06:27.089Z,101335.22
2022-12-03T03:09:29.798Z,101348.72
2022-12-03T03:12:36.182Z,101338.06
2022-12-03T03:15:42.503Z,101319.19
2022-12-03T03:18:44.969Z,101339.28
2022-12-03T03:21:47.569Z,101342.50
2022-12-03T03:24:49.835Z,101329.97
2022-12-03T03:27:52.411Z,101340.97
2022-12-03T03:30:55.396Z,101345.47
2022-12-03T03:33:58.185Z,101327.16
2022-12-03T03:37:00.476Z,101346.44
2022-12-03T03:40:03.611Z,101324.78
2022-12-03T03:43:06.799Z,101336.34
2022-12-03T03:46:10.663Z,101340.12
2022-12-03T03:49:14.054Z,101342.19
2022-12-03T03:52:18.492Z,101343.94
2022-12-03T03:55:20.936Z,101336.78
2022-12-03T03:58:23.508Z,101348.00
2022-12-03T04:01:26.947Z,101334.72
2022-12-03T04:04:33.338Z,101339.75
2022-12-03T04:07:35.889Z,101339.44
2022-12-03T04:10:57.113Z,101336.94
2022-12-03T04:13:59.343Z,101345.56
2022-12-03T04:17:01.962Z,101327.97
2022-12-03T04:20:04.843Z,101349.84
2022-12-03T04:23:08.401Z,101339.38
2022-12-03T04:26:29.258Z,101329.81
2022-12-03T04:29:31.798Z,101325.84
2022-12-03T04:32:52.498Z,101342.44
2022-12-03T04:35:55.160Z,101341.91
2022-12-03T04:38:57.522Z,101347.62
2022-12-03T04:42:00.139Z,101335.37
2022-12-03T04:45:02.427Z,101346.66
2022-12-03T04:48:05.174Z,101316.09
2022-12-03T04:51:07.422Z,101338.41
2022-12-03T04:54:09.977Z,101329.13
2022-12-03T04:57:12.754Z,101347.25
2022-12-03T05:00:15.908Z,101348.72
2022-12-03T05:03:18.254Z,101357.00
2022-12-03T05:06:20.796Z,101357.44
2022-12-03T05:09:23.161Z,101334.84
2022-12-03T05:12:25.680Z,101337.91
2022-12-03T05:15:27.913Z,101344.03
2022-12-03T05:18:30.454Z,101357.28
2022-12-03T05:21:33.052Z,101370.25
2022-12-03T05:24:35.579Z,101365.72
2022-12-03T05:27:37.850Z,101376.88
2022-12-03T05:30:40.548Z,101370.38
2022-12-03T05:33:44.522Z,101364.41
2022-12-03T05:36:47.307Z,101364.03
2022-12-03T05:39:49.573Z,101347.16
2022-12-03T05:42:55.002Z,101337.53
2022-12-03T05:45:57.313Z,101356.72
2022-12-03T05:49:05.359Z,101371.94
2022-12-03T05:52:07.594Z,101371.53
2022-12-03T05:55:11.569Z,101367.72
2022-12-03T05:58:14.004Z,101354.22
2022-12-03T06:01:16.647Z,101378.97
2022-12-03T06:04:19.137Z,101384.06
2022-12-03T06:07:21.400Z,101387.28
2022-12-03T06:10:25.061Z,101375.06
2022-12-03T06:13:27.326Z,101396.28
2022-12-03T06:16:29.936Z,101384.81
2022-12-03T06:19:33.018Z,101392.09
2022-12-03T06:22:35.542Z,101379.59
2022-12-03T06:25:37.832Z,101378.53
2022-12-03T06:28:45.587Z,101361.75
2022-12-03T06:31:47.835Z,101381.44
2022-12-03T06:34:53.363Z,101378.94
2022-12-03T06:37:55.912Z,101372.13
2022-12-03T06:40:58.442Z,101371.28
2022-12-03T06:44:00.724Z,101375.94
2022-12-03T06:47:03.331Z,101387.31
2022-12-03T06:50:07.649Z,101378.38
2022-12-03T06:53:10.165Z,101394.06
2022-12-03T06:56:12.421Z,101389.06
2022-12-03T06:59:14.957Z,101382.34
2022-12-03T07:02:17.233Z,101395.63
2022-12-03T07:05:20.038Z,101374.41
2022-12-03T07:08:22.258Z,101394.38
2022-12-03T07:11:39.942Z,101371.72
2022-12-03T07:14:42.226Z,101373.78
2022-12-03T07:17:44.757Z,101382.97
2022-12-03T07:20:47.234Z,101380.69
2022-12-03T07:23:49.842Z,101383.06
2022-12-03T07:26:52.068Z,101385.87
2022-12-03T07:29:54.623Z,101399.91
2022-12-03T07:32:56.921Z,101391.47
2022-12-03T07:35:59.461Z,101382.66
2022-12-03T07:39:01.679Z,101398.09
2022-12-03T07:42:04.321Z,101395.75
2022-12-03T07:45:07.235Z,101389.81
2022-12-03T07:48:09.836Z,101402.78
2022-12-03T07:51:15.293Z,101402.19
2022-12-03T07:54:18.155Z,101376.41
2022-12-03T07:57:20.878Z,101392.31
2022-12-03T08:00:23.570Z,101369.88
2022-12-03T08:03:26.244Z,101383.53
2022-12-03T08:06:28.508Z,101396.34
2022-12-03T08:09:31.556Z,101381.03
2022-12-03T08:12:40.611Z,101393.94
2022-12-03T08:15:45.196Z,101400.88
2022-12-03T08:18:49.343Z,101394.00
2022-12-03T08:21:55.281Z,101395.47
2022-12-03T08:25:02.108Z,101408.22
2022-12-03T08:28:22.982Z,101404.09
2022-12-03T08:31:32.866Z,101390.88
2022-12-03T08:34:40.713Z,101383.91
2022-12-03T08:37:43.042Z,101394.31
2022-12-03T08:40:48.155Z,101411.94
2022-12-03T08:43:50.379Z,101392.69
2022-12-03T08:47:26.352Z,101390.19
2022-12-03T08:50:40.186Z,101397.41
2022-12-03T08:54:01.553Z,101415.91
2022-12-03T08:57:28.991Z,101405.84
2022-12-03T09:00:32.466Z,101426.81
2022-12-03T09:03:34.946Z,101411.81
2022-12-03T09:06:37.485Z,101424.81
2022-12-03T09:09:40.258Z,101404.25
2022-12-03T09:12:42.889Z,101399.87
2022-12-03T09:15:45.166Z,101407.31
2022-12-03T09:18:47.735Z,101414.16
2022-12-03T09:21:50.172Z,101415.22
2022-12-03T09:24:52.987Z,101393.41
2022-12-03T09:27:55.426Z,101397.81
2022-12-03T09:30:57.886Z,101389.66
2022-12-03T09:34:02.540Z,101389.34
2022-12-03T09:37:05.173Z,101395.19
2022-12-03T09:40:08.806Z,101391.47
2022-12-03T09:43:12.527Z,101393.13
2022-12-03T09:46:15.037Z,101388.25
2022-12-03T09:49:19.903Z,101388.03
2022-12-03T09:52:28.774Z,101383.56
2022-12-03T09:55:32.239Z,101359.75
2022-12-03T09:58:35.040Z,101386.25
2022-12-03T10:01:37.823Z,101367.28
2022-12-03T10:04:40.493Z,101376.44
2022-12-03T10:07:42.874Z,101370.44
2022-12-03T10:10:45.549Z,101380.25
2022-12-03T10:13:48.299Z,101374.72
2022-12-03T10:16:51.152Z,101359.72
2022-12-03T10:19:53.809Z,101353.38
2022-12-03T10:22:56.534Z,101359.81
2022-12-03T10:26:02.978Z,101355.22
2022-12-03T10:29:13.153Z,101355.00
2022-12-03T10:32:15.453Z,101336.75
2022-12-03T10:35:21.745Z,101329.81
2022-12-03T10:38:24.091Z,101325.31
2022-12-03T10:41:29.199Z,101340.09
2022-12-03T10:44:31.562Z,101325.34
2022-12-03T10:47:34.240Z,101329.78
2022-12-03T10:50:37.708Z,101307.44
2022-12-03T10:53:41.132Z,101325.44
2022-12-03T10:56:44.056Z,101312.16
2022-12-03T10:59:46.600Z,101303.19
2022-12-03T11:02:54.811Z,101305.88
2022-12-03T11:06:00.454Z,101318.19
2022-12-03T11:09:08.808Z,101304.03
2022-12-03T11:12:17.572Z,101313.41
2022-12-03T11:15:44.411Z,101296.47
2022-12-03T11:18:49.731Z,101296.56
2022-12-03T11:22:05.400Z,101288.84
2022-12-03T11:25:44.701Z,101276.44
2022-12-03T11:28:46.994Z,101276.53
2022-12-03T11:31:49.684Z,101279.75
2022-12-03T11:34:52.350Z,101273.31
2022-12-03T11:37:55.207Z,101276.75
2022-12-03T11:41:34.225Z,101271.94
2022-12-03T11:44:36.921Z,101254.34
2022-12-03T11:47:59.377Z,101262.78
2022-12-03T11:51:02.156Z,101263.25
2022-12-03T11:54:04.678Z,101270.78
2022-12-03T11:57:26.435Z,101244.34
2022-12-03T12:00:29.280Z,101252.34
2022-12-03T12:03:41.831Z,101262.72
2022-12-03T12:06:48.689Z,101254.22
2022-12-03T12:09:55.882Z,101252.84
2022-12-03T12:12:58.635Z,101255.72
2022-12-03T12:16:04.221Z,101245.22
2022-12-03T12:19:33.009Z,101220.59
2022-12-03T12:22:35.653Z,101239.84
2022-12-03T12:25:40.364Z,101233.16
2022-12-03T12:28:42.959Z,101231.84
2022-12-03T12:31:49.515Z,101219.38
2022-12-03T12:34:59.787Z,101224.25
2022-12-03T12:38:08.693Z,101221.31
2022-12-03T12:41:11.487Z,101233.37
2022-12-03T12:44:14.431Z,101236.75
2022-12-03T12:47:17.030Z,101235.38
2022-12-03T12:50:20.120Z,101232.63
2022-12-03T12:53:24.840Z,101216.69
2022-12-03T12:56:32.627Z,101225.31
2022-12-03T12:59:35.523Z,101216.47
2022-12-03T13:03:00.318Z,101213.63
2022-12-03T13:06:03.688Z,101198.66
2022-12-03T13:09:17.909Z,101224.22
2022-12-03T13:12:23.282Z,101218.69
2022-12-03T13:15:38.933Z,101211.88
2022-12-03T13:18:44.995Z,101224.28
2022-12-03T13:21:47.252Z,101226.63
2022-12-03T13:24:51.981Z,101219.59
2022-12-03T13:27:54.216Z,101227.97
2022-12-03T13:31:12.747Z,101208.91
2022-12-03T13:34:20.802Z,101212.41
2022-12-03T13:37:26.893Z,101220.78
2022-12-03T13:40:31.640Z,101213.19
2022-12-03T13:43:38.752Z,101232.66
2022-12-03T13:46:46.693Z,101232.09
2022-12-03T13:50:00.826Z,101234.88
2022-12-03T13:53:23.324Z,101240.37
2022-12-03T13:56:25.874Z,101230.41
2022-12-03T13:59:28.170Z,101229.91
2022-12-03T14:02:30.679Z,101214.09
2022-12-03T14:05:33.368Z,101238.53
2022-12-03T14:08:35.650Z,101244.41
2022-12-03T14:11:56.920Z,101244.06
2022-12-03T14:15:04.069Z,101245.38
2022-12-03T14:18:06.723Z,101253.03
2022-12-03T14:21:09.014Z,101236.19
2022-12-03T14:24:11.641Z,101246.41
2022-12-03T14:27:13.922Z,101247.50
2022-12-03T14:30:16.712Z,101250.75
2022-12-03T14:33:18.937Z,101244.75
2022-12-03T14:36:21.574Z,101247.94
2022-12-03T14:39:23.984Z,101244.81
2022-12-03T14:42:29.460Z,101230.84
2022-12-03T14:45:32.008Z,101253.94
2022-12-03T14:48:34.590Z,101233.34
2022-12-03T14:51:36.845Z,101260.22
2022-12-03T14:54:42.638Z,101234.94
2022-12-03T14:57:45.355Z,101235.47
2022-12-03T15:00:47.979Z,101252.59
2022-12-03T15:03:50.256Z,101257.56
2022-12-03T15:06:52.809Z,101256.38
2022-12-03T15:09:55.441Z,101257.78
2022-12-03T15:12:58.271Z,101254.94
2022-12-03T15:16:00.550Z,101253.53
2022-12-03T15:19:03.166Z,101253.28
2022-12-03T15:22:05.419Z,101258.94
2022-12-03T15:25:08.482Z,101258.19
2022-12-03T15:28:10.810Z,101241.13
2022-12-03T15:31:13.605Z,101267.00
2022-12-03T15:34:21.808Z,101245.97
2022-12-03T15:37:27.690Z,101260.69
2022-12-03T15:40:29.900Z,101253.34
2022-12-03T15:43:32.440Z,101255.84
2022-12-03T15:46:34.827Z,101267.78
2022-12-03T15:49:37.410Z,101264.69
2022-12-03T15:52:40.057Z,101269.03
2022-12-03T15:55:42.626Z,101264.13
2022-12-03T15:58:44.923Z,101267.63
2022-12-03T16:01:47.542Z,101243.91
2022-12-03T16:04:50.143Z,101264.25
2022-12-03T16:07:52.662Z,101260.56
2022-12-03T16:10:55.353Z,101258.06
2022-12-03T16:13:57.637Z,101259.47
2022-12-03T16:17:00.246Z,101262.75
2022-12-03T16:20:02.826Z,101267.09
2022-12-03T16:23:05.594Z,101273.91
2022-12-03T16:26:07.855Z,101259.09
2022-12-03T16:29:10.436Z,101255.69
2022-12-03T16:32:12.917Z,101269.12
2022-12-03T16:35:15.598Z,101267.37
2022-12-03T16:38:17.885Z,101281.25
2022-12-03T16:41:22.393Z,101270.13
2022-12-03T16:44:32.706Z,101251.91
2022-12-03T16:47:35.496Z,101271.66
2022-12-03T16:50:38.134Z,101278.84
2022-12-03T16:53:40.814Z,101259.84
2022-12-03T16:56:43.062Z,101266.41
2022-12-03T16:59:45.658Z,101258.78
2022-12-03T17:02:48.675Z,101273.00
2022-12-03T17:05:51.471Z,101272.41
2022-12-03T17:08:53.781Z,101255.66
2022-12-03T17:11:56.318Z,101261.19
2022-12-03T17:14:58.596Z,101278.19
2022-12-03T17:18:03.488Z,101284.87
2022-12-03T17:21:06.648Z,101255.66
2022-12-03T17:24:09.326Z,101272.41
2022-12-03T17:27:12.844Z,101284.53
2022-12-03T17:30:15.792Z,101273.53
2022-12-03T17:33:18.019Z,101278.91
2022-12-03T17:36:20.536Z,101285.84
2022-12-03T17:39:22.974Z,101287.78
2022-12-03T17:42:25.908Z,101288.50
2022-12-03T17:45:28.259Z,101277.22
2022-12-03T17:48:31.407Z,101282.50
2022-12-03T17:51:33.903Z,101267.91
2022-12-03T17:55:01.753Z,101281.31
2022-12-03T17:57:59.831Z,101286.94
2022-12-03T18:01:03.371Z,101263.13
2022-12-03T18:04:06.123Z,101284.34
2022-12-03T18:07:08.774Z,101279.31
2022-12-03T18:10:11.518Z,101275.09
2022-12-03T18:13:14.083Z,101281.63
2022-12-03T18:16:16.842Z,101267.16
2022-12-03T18:19:19.195Z,101279.84
2022-12-03T18:22:21.843Z,101261.06
2022-12-03T18:25:25.923Z,101279.75
2022-12-03T18:28:30.612Z,101277.94
2022-12-03T18:31:33.074Z,101279.28
2022-12-03T18:34:35.584Z,101282.69
2022-12-03T18:37:38.487Z,101280.66
2022-12-03T18:40:43.970Z,101258.16
2022-12-03T18:43:46.604Z,101278.78
2022-12-03T18:46:53.930Z,101265.00
2022-12-03T18:49:57.515Z,101291.94
2022-12-03T18:53:00.407Z,101292.78
2022-12-03T18:56:03.135Z,101286.31
2022-12-03T18:59:07.398Z,101288.59
2022-12-03T19:02:46.099Z,101274.22
2022-12-03T19:05:42.174Z,101267.13
2022-12-03T19:08:45.137Z,101272.91
2022-12-03T19:11:48.011Z,101279.72
2022-12-03T19:14:51.107Z,101264.16
2022-12-03T19:17:53.748Z,101283.41
2022-12-03T19:20:56.100Z,101283.09
2022-12-03T19:24:23.298Z,101277.09
2022-12-03T19:27:21.218Z,101279.03
2022-12-03T19:30:23.960Z,101283.19
2022-12-03T19:33:28.674Z,101292.91
2022-12-03T19:36:31.736Z,101275.78
2022-12-03T19:39:34.093Z,101302.25
2022-12-03T19:42:36.658Z,101303.94
2022-12-03T19:45:38.976Z,101298.41
2022-12-03T19:48:41.763Z,101280.69
2022-12-03T19:51:44.341Z,101282.97
2022-12-03T19:54:46.921Z,101312.41
2022-12-03T19:57:49.215Z,101311.13
2022-12-03T20:00:51.755Z,101286.66
2022-12-03T20:03:57.727Z,101308.25
2022-12-03T20:06:59.997Z,101303.66
2022-12-03T20:10:02.747Z,101304.87
2022-12-03T20:13:05.398Z,101306.06
2022-12-03T20:16:12.570Z,101304.66
2022-12-03T20:19:17.079Z,101305.97
2022-12-03T20:22:19.635Z,101312.31
2022-12-03T20:25:21.916Z,101309.56
2022-12-03T20:28:24.615Z,101306.91
2022-12-03T20:31:29.594Z,101311.59
2022-12-03T20:34:34.130Z,101287.28
2022-12-03T20:37:36.415Z,101296.03
2022-12-03T20:40:39.119Z,101294.94
2022-12-03T20:43:42.311Z,101301.53
2022-12-03T20:46:44.932Z,101302.13
2022-12-03T20:49:47.251Z,101299.38
2022-12-03T20:53:16.245Z,101301.78
2022-12-03T20:56:18.609Z,101295.41
2022-12-03T20:59:21.326Z,101297.09
2022-12-03T21:02:23.692Z,101305.97
2022-12-03T21:05:27.040Z,101277.56
2022-12-03T21:08:41.115Z,101300.56
2022-12-03T21:11:44.452Z,101296.50
2022-12-03T21:14:46.839Z,101290.63
2022-12-03T21:17:49.471Z,101294.69
2022-12-03T21:20:51.762Z,101276.00
2022-12-03T21:23:54.810Z,101290.84
2022-12-03T21:26:57.985Z,101266.91
2022-12-03T21:30:00.562Z,101272.53
2022-12-03T21:33:02.807Z,101295.88
2022-12-03T21:36:06.861Z,101303.31
2022-12-03T21:39:09.198Z,101305.47
2022-12-03T21:42:19.393Z,101286.56
2022-12-03T21:45:33.955Z,101295.31
2022-12-03T21:48:36.752Z,101272.41
2022-12-03T21:51:39.018Z,101278.03
2022-12-03T21:54:41.665Z,101286.16
2022-12-03T21:57:43.970Z,101254.44
2022-12-03T22:00:46.545Z,101288.22
2022-12-03T22:03:50.195Z,101272.62
2022-12-03T22:06:52.481Z,101287.97
2022-12-03T22:09:55.287Z,101287.87
2022-12-03T22:12:57.796Z,101282.72
2022-12-03T22:16:04.565Z,101277.69
2022-12-03T22:19:06.803Z,101281.63
2022-12-03T22:22:09.378Z,101266.69
2022-12-03T22:25:11.777Z,101281.41
2022-12-03T22:28:14.290Z,101258.91
2022-12-03T22:31:18.399Z,101264.41
2022-12-03T22:34:21.058Z,101254.69
2022-12-03T22:37:23.964Z,101267.63
2022-12-03T22:40:26.472Z,101275.66
2022-12-03T22:43:28.818Z,101271.81
2022-12-03T22:46:31.503Z,101250.87
2022-12-03T22:49:33.826Z,101265.72
2022-12-03T22:52:36.348Z,101242.38
2022-12-03T22:55:39.112Z,101256.63
2022-12-03T22:58:41.764Z,101266.28
2022-12-03T23:01:44.414Z,101257.56
2022-12-03T23:04:47.015Z,101245.59
2022-12-03T23:07:50.673Z,101261.25
2022-12-03T23:10:53.283Z,101262.22
2022-12-03T23:13:55.575Z,101256.22
2022-12-03T23:16:58.063Z,101246.19
2022-12-03T23:20:00.339Z,101258.38
2022-12-03T23:23:02.865Z,101236.97
2022-12-03T23:26:07.847Z,101239.94
2022-12-03T23:29:10.457Z,101238.38
2022-12-03T23:32:12.738Z,101243.31
2022-12-03T23:35:15.240Z,101232.88
2022-12-03T23:38:17.457Z,101250.13
2022-12-03T23:41:22.245Z,101226.16
2022-12-03T23:44:24.995Z,101223.31
2022-12-03T23:47:27.967Z,101239.22
2022-12-03T23:50:31.032Z,101216.13
2022-12-03T23:53:35.142Z,101240.66
2022-12-03T23:56:37.581Z,101230.13
2022-12-03T23:59:42.125Z,101231.19
